sensor_id;sensor_type;location;lat;lon;timestamp;pressure;altitude;pressure_sealevel;temperature;humidity
72685;BME280;61365;52.162;4.500;2024-02-04T00:00:16;102402.25;;;10.80;100.00
72685;BME280;61365;52.162;4.500;2024-02-04T00:02:43;102407.47;;;10.79;100.00
72685;BME280;61365;52.162;4.500;2024-02-04T00:05:09;102402.34;;;10.85;100.00
72685;BME280;61365;52.162;4.500;2024-02-04T00:07:36;102405.88;;;10.87;100.00
72685;BME280;61365;52.162;4.500;2024-02-04T00:10:02;102390.19;;;10.90;100.00
72685;BME280;61365;52.162;4.500;2024-02-04T00:12:29;102396.97;;;10.79;100.00
72685;BME280;61365;52.162;4.500;2024-02-04T00:14:55;102390.97;;;10.85;100.00
72685;BME280;61365;52.162;4.500;2024-02-04T00:17:21;102400.44;;;10.78;100.00
72685;BME280;61365;52.162;4.500;2024-02-04T00:19:47;102399.75;;;10.87;100.00
72685;BME280;61365;52.162;4.500;2024-02-04T00:22:13;102400.47;;;10.79;100.00
72685;BME280;61365;52.162;4.500;2024-02-04T00:24:39;102388.25;;;10.81;100.00
72685;BME280;61365;52.162;4.500;2024-02-04T00:27:05;102378.66;;;10.82;100.00
72685;BME280;61365;52.162;4.500;2024-02-04T00:29:31;102380.44;;;10.83;100.00
72685;BME280;61365;52.162;4.500;2024-02-04T00:31:57;102374.19;;;10.78;100.00
72685;BME280;61365;52.162;4.500;2024-02-04T00:34:23;102377.66;;;10.77;100.00
72685;BME280;61365;52.162;4.500;2024-02-04T00:36:50;102379.69;;;10.90;100.00
72685;BME280;61365;52.162;4.500;2024-02-04T00:39:16;102369.94;;;10.83;100.00
72685;BME280;61365;52.162;4.500;2024-02-04T00:41:42;102370.25;;;10.99;100.00
72685;BME280;61365;52.162;4.500;2024-02-04T00:44:08;102369.34;;;10.98;100.00
72685;BME280;61365;52.162;4.500;2024-02-04T00:46:34;102365.56;;;10.85;100.00
72685;BME280;61365;52.162;4.500;2024-02-04T00:49:00;102357.66;;;10.84;100.00
72685;BME280;61365;52.162;4.500;2024-02-04T00:51:26;102348.91;;;10.83;100.00
72685;BME280;61365;52.162;4.500;2024-02-04T00:53:52;102351.66;;;10.89;100.00
72685;BME280;61365;52.162;4.500;2024-02-04T00:56:18;102347.25;;;10.87;100.00
72685;BME280;61365;52.162;4.500;2024-02-04T00:58:44;102341.94;;;10.85;100.00
72685;BME280;61365;52.162;4.500;2024-02-04T01:01:11;102342.84;;;10.86;100.00
72685;BME280;61365;52.162;4.500;2024-02-04T01:03:37;102347.06;;;10.79;100.00
72685;BME280;61365;52.162;4.500;2024-02-04T01:06:03;102347.00;;;10.76;100.00
72685;BME280;61365;52.162;4.500;2024-02-04T01:08:30;102334.75;;;10.76;100.00
72685;BME280;61365;52.162;4.500;2024-02-04T01:10:56;102342.63;;;10.76;100.00
72685;BME280;61365;52.162;4.500;2024-02-04T01:13:22;102346.09;;;10.75;100.00
72685;BME280;61365;52.162;4.500;2024-02-04T01:15:48;102356.81;;;10.85;100.00
72685;BME280;61365;52.162;4.500;2024-02-04T01:18:14;102354.81;;;10.74;100.00
72685;BME280;61365;52.162;4.500;2024-02-04T01:20:41;102355.59;;;10.69;100.00
72685;BME280;61365;52.162;4.500;2024-02-04T01:23:07;102363.50;;;10.70;100.00
72685;BME280;61365;52.162;4.500;2024-02-04T01:25:34;102354.66;;;10.66;100.00
72685;BME280;61365;52.162;4.500;2024-02-04T01:28:00;102343.03;;;10.55;100.00
72685;BME280;61365;52.162;4.500;2024-02-04T01:30:26;102364.06;;;10.57;100.00
72685;BME280;61365;52.162;4.500;2024-02-04T01:32:54;102356.78;;;10.45;100.00
72685;BME280;61365;52.162;4.500;2024-02-04T01:35:20;102361.44;;;10.57;100.00
72685;BME280;61365;52.162;4.500;2024-02-04T01:37:46;102366.44;;;10.47;100.00
72685;BME280;61365;52.162;4.500;2024-02-04T01:40:14;102367.84;;;10.33;100.00
72685;BME280;61365;52.162;4.500;2024-02-04T01:42:40;102368.03;;;10.39;100.00
72685;BME280;61365;52.162;4.500;2024-02-04T01:45:07;102372.75;;;10.54;100.00
72685;BME280;61365;52.162;4.500;2024-02-04T01:47:33;102372.78;;;10.56;100.00
72685;BME280;61365;52.162;4.500;2024-02-04T01:50:00;102368.22;;;10.48;100.00
72685;BME280;61365;52.162;4.500;2024-02-04T01:52:26;102376.41;;;10.61;100.00
72685;BME280;61365;52.162;4.500;2024-02-04T01:54:54;102373.56;;;10.51;100.00
72685;BME280;61365;52.162;4.500;2024-02-04T01:57:20;102372.69;;;10.51;100.00
72685;BME280;61365;52.162;4.500;2024-02-04T01:59:47;102376.31;;;10.56;100.00
72685;BME280;61365;52.162;4.500;2024-02-04T02:02:14;102371.84;;;10.54;100.00
72685;BME280;61365;52.162;4.500;2024-02-04T02:04:40;102373.78;;;10.61;100.00
72685;BME280;61365;52.162;4.500;2024-02-04T02:07:06;102377.84;;;10.48;100.00
72685;BME280;61365;52.162;4.500;2024-02-04T02:09:33;102382.34;;;10.54;100.00
72685;BME280;61365;52.162;4.500;2024-02-04T02:12:16;102373.19;;;10.37;100.00
72685;BME280;61365;52.162;4.500;2024-02-04T02:14:50;102362.81;;;10.41;100.00
72685;BME280;61365;52.162;4.500;2024-02-04T02:17:44;102351.97;;;10.63;100.00
72685;BME280;61365;52.162;4.500;2024-02-04T02:20:23;102345.28;;;10.40;100.00
72685;BME280;61365;52.162;4.500;2024-02-04T02:23:08;102363.16;;;10.21;100.00
72685;BME280;61365;52.162;4.500;2024-02-04T02:25:38;102364.19;;;10.26;100.00
72685;BME280;61365;52.162;4.500;2024-02-04T02:28:06;102364.75;;;10.14;100.00
72685;BME280;61365;52.162;4.500;2024-02-04T02:30:33;102366.75;;;10.25;100.00
72685;BME280;61365;52.162;4.500;2024-02-04T02:32:59;102348.47;;;10.28;100.00
72685;BME280;61365;52.162;4.500;2024-02-04T02:35:25;102350.16;;;10.26;100.00
72685;BME280;61365;52.162;4.500;2024-02-04T02:37:56;102350.41;;;10.35;100.00
72685;BME280;61365;52.162;4.500;2024-02-04T02:43:19;102347.28;;;10.15;100.00
72685;BME280;61365;52.162;4.500;2024-02-04T02:45:47;102356.97;;;10.17;100.00
72685;BME280;61365;52.162;4.500;2024-02-04T02:48:14;102363.75;;;10.09;100.00
72685;BME280;61365;52.162;4.500;2024-02-04T02:50:41;102360.38;;;10.15;100.00
72685;BME280;61365;52.162;4.500;2024-02-04T02:53:07;102353.38;;;10.14;100.00
72685;BME280;61365;52.162;4.500;2024-02-04T02:55:33;102354.53;;;10.25;100.00
72685;BME280;61365;52.162;4.500;2024-02-04T02:57:59;102337.53;;;10.09;100.00
72685;BME280;61365;52.162;4.500;2024-02-04T03:00:25;102348.28;;;10.20;100.00
72685;BME280;61365;52.162;4.500;2024-02-04T03:02:51;102347.25;;;10.13;100.00
72685;BME280;61365;52.162;4.500;2024-02-04T03:05:18;102340.22;;;10.47;100.00
72685;BME280;61365;52.162;4.500;2024-02-04T03:07:44;102339.34;;;10.47;100.00
72685;BME280;61365;52.162;4.500;2024-02-04T03:10:10;102338.03;;;10.31;100.00
72685;BME280;61365;52.162;4.500;2024-02-04T03:12:36;102337.03;;;10.26;100.00
72685;BME280;61365;52.162;4.500;2024-02-04T03:15:02;102351.91;;;10.25;100.00
72685;BME280;61365;52.162;4.500;2024-02-04T03:17:29;102332.69;;;10.26;100.00
72685;BME280;61365;52.162;4.500;2024-02-04T03:19:55;102333.63;;;10.28;100.00
72685;BME280;61365;52.162;4.500;2024-02-04T03:22:21;102322.03;;;10.20;100.00
72685;BME280;61365;52.162;4.500;2024-02-04T03:24:48;102330.81;;;10.20;100.00
72685;BME280;61365;52.162;4.500;2024-02-04T03:27:16;102327.41;;;10.25;100.00
72685;BME280;61365;52.162;4.500;2024-02-04T03:29:43;102337.97;;;10.28;100.00
72685;BME280;61365;52.162;4.500;2024-02-04T03:32:10;102344.03;;;10.25;100.00
72685;BME280;61365;52.162;4.500;2024-02-04T03:34:37;102337.88;;;10.25;100.00
72685;BME280;61365;52.162;4.500;2024-02-04T03:37:05;102345.75;;;10.23;100.00
72685;BME280;61365;52.162;4.500;2024-02-04T03:39:31;102352.69;;;10.22;100.00
72685;BME280;61365;52.162;4.500;2024-02-04T03:41:57;102339.38;;;10.13;100.00
72685;BME280;61365;52.162;4.500;2024-02-04T03:44:23;102343.63;;;10.08;100.00
72685;BME280;61365;52.162;4.500;2024-02-04T03:46:49;102348.97;;;10.13;100.00
72685;BME280;61365;52.162;4.500;2024-02-04T03:49:16;102367.03;;;10.00;100.00
72685;BME280;61365;52.162;4.500;2024-02-04T03:51:43;102360.03;;;10.01;100.00
72685;BME280;61365;52.162;4.500;2024-02-04T03:54:09;102342.78;;;10.09;100.00
72685;BME280;61365;52.162;4.500;2024-02-04T03:56:35;102350.44;;;10.01;100.00
72685;BME280;61365;52.162;4.500;2024-02-04T03:59:01;102347.00;;;10.04;100.00
72685;BME280;61365;52.162;4.500;2024-02-04T04:01:28;102329.69;;;10.11;100.00
72685;BME280;61365;52.162;4.500;2024-02-04T04:03:54;102336.69;;;10.10;100.00
72685;BME280;61365;52.162;4.500;2024-02-04T04:06:20;102341.06;;;10.11;100.00
72685;BME280;61365;52.162;4.500;2024-02-04T04:08:46;102327.13;;;10.14;100.00
72685;BME280;61365;52.162;4.500;2024-02-04T04:11:12;102317.41;;;10.10;100.00
72685;BME280;61365;52.162;4.500;2024-02-04T04:13:38;102303.97;;;9.96;100.00
72685;BME280;61365;52.162;4.500;2024-02-04T04:16:05;102297.53;;;9.83;100.00
72685;BME280;61365;52.162;4.500;2024-02-04T04:18:31;102312.06;;;10.05;100.00
72685;BME280;61365;52.162;4.500;2024-02-04T04:20:58;102305.88;;;10.03;100.00
72685;BME280;61365;52.162;4.500;2024-02-04T04:23:24;102302.41;;;10.02;100.00
72685;BME280;61365;52.162;4.500;2024-02-04T04:25:50;102297.84;;;9.97;100.00
72685;BME280;61365;52.162;4.500;2024-02-04T04:28:16;102305.13;;;10.07;100.00
72685;BME280;61365;52.162;4.500;2024-02-04T04:30:42;102303.34;;;10.06;100.00
72685;BME280;61365;52.162;4.500;2024-02-04T04:33:08;102302.56;;;10.09;100.00
72685;BME280;61365;52.162;4.500;2024-02-04T04:35:35;102301.75;;;10.13;100.00
72685;BME280;61365;52.162;4.500;2024-02-04T04:38:01;102301.47;;;10.00;100.00
72685;BME280;61365;52.162;4.500;2024-02-04T04:40:27;102291.06;;;10.03;100.00
72685;BME280;61365;52.162;4.500;2024-02-04T04:42:53;102289.47;;;10.12;100.00
72685;BME280;61365;52.162;4.500;2024-02-04T04:45:19;102285.94;;;10.10;100.00
72685;BME280;61365;52.162;4.500;2024-02-04T04:47:47;102291.97;;;10.05;100.00
72685;BME280;61365;52.162;4.500;2024-02-04T04:50:13;102299.09;;;10.11;100.00
72685;BME280;61365;52.162;4.500;2024-02-04T04:52:39;102295.88;;;10.23;100.00
72685;BME280;61365;52.162;4.500;2024-02-04T04:55:05;102279.91;;;10.14;100.00
72685;BME280;61365;52.162;4.500;2024-02-04T04:57:31;102272.78;;;10.08;100.00
72685;BME280;61365;52.162;4.500;2024-02-04T04:59:58;102288.50;;;10.06;100.00
72685;BME280;61365;52.162;4.500;2024-02-04T05:02:26;102304.59;;;10.20;100.00
72685;BME280;61365;52.162;4.500;2024-02-04T05:04:52;102284.88;;;10.01;100.00
72685;BME280;61365;52.162;4.500;2024-02-04T05:07:18;102279.97;;;10.15;100.00
72685;BME280;61365;52.162;4.500;2024-02-04T05:09:45;102295.81;;;10.20;100.00
72685;BME280;61365;52.162;4.500;2024-02-04T05:12:11;102268.44;;;10.09;100.00
72685;BME280;61365;52.162;4.500;2024-02-04T05:14:37;102265.25;;;10.22;100.00
72685;BME280;61365;52.162;4.500;2024-02-04T05:17:04;102261.81;;;10.25;100.00
72685;BME280;61365;52.162;4.500;2024-02-04T05:19:31;102256.38;;;10.15;100.00
72685;BME280;61365;52.162;4.500;2024-02-04T05:21:57;102254.91;;;10.28;100.00
72685;BME280;61365;52.162;4.500;2024-02-04T05:24:23;102247.66;;;10.18;100.00
72685;BME280;61365;52.162;4.500;2024-02-04T05:26:49;102246.56;;;10.08;100.00
72685;BME280;61365;52.162;4.500;2024-02-04T05:29:15;102265.69;;;10.02;100.00
72685;BME280;61365;52.162;4.500;2024-02-04T05:31:42;102273.63;;;10.05;100.00
72685;BME280;61365;52.162;4.500;2024-02-04T05:34:09;102269.09;;;10.00;100.00
72685;BME280;61365;52.162;4.500;2024-02-04T05:36:36;102267.28;;;9.96;100.00
72685;BME280;61365;52.162;4.500;2024-02-04T05:39:12;102260.97;;;9.89;100.00
72685;BME280;61365;52.162;4.500;2024-02-04T05:41:39;102251.53;;;9.96;100.00
72685;BME280;61365;52.162;4.500;2024-02-04T05:44:06;102238.94;;;10.17;100.00
72685;BME280;61365;52.162;4.500;2024-02-04T05:46:34;102244.13;;;10.16;100.00
72685;BME280;61365;52.162;4.500;2024-02-04T05:49:02;102232.84;;;10.20;100.00
72685;BME280;61365;52.162;4.500;2024-02-04T05:51:28;102240.38;;;10.04;100.00
72685;BME280;61365;52.162;4.500;2024-02-04T05:53:54;102244.41;;;10.28;100.00
72685;BME280;61365;52.162;4.500;2024-02-04T05:56:21;102236.31;;;10.19;100.00
72685;BME280;61365;52.162;4.500;2024-02-04T05:58:47;102245.34;;;10.30;100.00
72685;BME280;61365;52.162;4.500;2024-02-04T06:01:15;102240.63;;;10.15;100.00
72685;BME280;61365;52.162;4.500;2024-02-04T06:03:42;102238.50;;;10.37;100.00
72685;BME280;61365;52.162;4.500;2024-02-04T06:06:14;102228.84;;;10.36;100.00
72685;BME280;61365;52.162;4.500;2024-02-04T06:08:45;102224.63;;;10.41;100.00
72685;BME280;61365;52.162;4.500;2024-02-04T06:11:12;102219.97;;;10.31;100.00
72685;BME280;61365;52.162;4.500;2024-02-04T06:13:39;102220.38;;;10.46;100.00
72685;BME280;61365;52.162;4.500;2024-02-04T06:16:06;102228.75;;;10.33;100.00
72685;BME280;61365;52.162;4.500;2024-02-04T06:18:34;102232.56;;;10.44;100.00
72685;BME280;61365;52.162;4.500;2024-02-04T06:21:05;102220.03;;;10.32;100.00
72685;BME280;61365;52.162;4.500;2024-02-04T06:23:32;102223.84;;;10.45;100.00
72685;BME280;61365;52.162;4.500;2024-02-04T06:25:58;102224.47;;;10.36;100.00
72685;BME280;61365;52.162;4.500;2024-02-04T06:28:25;102227.25;;;10.43;100.00
72685;BME280;61365;52.162;4.500;2024-02-04T06:30:51;102217.50;;;10.37;100.00
72685;BME280;61365;52.162;4.500;2024-02-04T06:33:17;102222.09;;;10.46;100.00
72685;BME280;61365;52.162;4.500;2024-02-04T06:35:44;102224.78;;;10.49;100.00
72685;BME280;61365;52.162;4.500;2024-02-04T06:38:10;102231.09;;;10.59;100.00
72685;BME280;61365;52.162;4.500;2024-02-04T06:40:36;102220.88;;;10.71;100.00
72685;BME280;61365;52.162;4.500;2024-02-04T06:43:02;102220.47;;;10.52;100.00
72685;BME280;61365;52.162;4.500;2024-02-04T06:45:29;102212.72;;;10.59;100.00
72685;BME280;61365;52.162;4.500;2024-02-04T06:47:55;102212.19;;;10.75;100.00
72685;BME280;61365;52.162;4.500;2024-02-04T06:50:21;102218.81;;;10.56;100.00
72685;BME280;61365;52.162;4.500;2024-02-04T06:52:47;102218.06;;;10.63;100.00
72685;BME280;61365;52.162;4.500;2024-02-04T06:55:13;102231.31;;;10.68;100.00
72685;BME280;61365;52.162;4.500;2024-02-04T06:57:40;102222.47;;;10.64;100.00
72685;BME280;61365;52.162;4.500;2024-02-04T07:00:06;102205.66;;;10.55;100.00
72685;BME280;61365;52.162;4.500;2024-02-04T07:02:35;102198.00;;;10.65;100.00
72685;BME280;61365;52.162;4.500;2024-02-04T07:05:01;102190.41;;;10.79;100.00
72685;BME280;61365;52.162;4.500;2024-02-04T07:07:27;102207.72;;;10.70;100.00
72685;BME280;61365;52.162;4.500;2024-02-04T07:09:53;102197.00;;;10.60;100.00
72685;BME280;61365;52.162;4.500;2024-02-04T07:12:20;102194.28;;;10.56;100.00
72685;BME280;61365;52.162;4.500;2024-02-04T07:14:46;102204.22;;;10.71;100.00
72685;BME280;61365;52.162;4.500;2024-02-04T07:17:12;102202.16;;;10.56;100.00
72685;BME280;61365;52.162;4.500;2024-02-04T07:19:39;102198.84;;;10.64;100.00
72685;BME280;61365;52.162;4.500;2024-02-04T07:22:05;102190.81;;;10.57;100.00
72685;BME280;61365;52.162;4.500;2024-02-04T07:24:31;102203.91;;;10.55;100.00
72685;BME280;61365;52.162;4.500;2024-02-04T07:26:57;102192.53;;;10.55;100.00
72685;BME280;61365;52.162;4.500;2024-02-04T07:29:26;102202.31;;;10.62;100.00
72685;BME280;61365;52.162;4.500;2024-02-04T07:31:52;102198.81;;;10.63;100.00
72685;BME280;61365;52.162;4.500;2024-02-04T07:34:18;102216.84;;;10.47;100.00
72685;BME280;61365;52.162;4.500;2024-02-04T07:36:44;102225.63;;;10.48;100.00
72685;BME280;61365;52.162;4.500;2024-02-04T07:39:11;102216.06;;;10.50;100.00
72685;BME280;61365;52.162;4.500;2024-02-04T07:41:37;102214.41;;;10.55;100.00
72685;BME280;61365;52.162;4.500;2024-02-04T07:44:03;102205.69;;;10.56;100.00
72685;BME280;61365;52.162;4.500;2024-02-04T07:46:30;102216.91;;;10.49;100.00
72685;BME280;61365;52.162;4.500;2024-02-04T07:48:56;102224.03;;;10.55;100.00
72685;BME280;61365;52.162;4.500;2024-02-04T07:51:22;102210.75;;;10.48;100.00
72685;BME280;61365;52.162;4.500;2024-02-04T07:53:49;102208.19;;;10.51;100.00
72685;BME280;61365;52.162;4.500;2024-02-04T07:56:15;102198.13;;;10.32;100.00
72685;BME280;61365;52.162;4.500;2024-02-04T07:58:41;102180.06;;;10.44;100.00
72685;BME280;61365;52.162;4.500;2024-02-04T08:01:07;102200.31;;;10.50;100.00
72685;BME280;61365;52.162;4.500;2024-02-04T08:03:33;102198.59;;;10.52;100.00
72685;BME280;61365;52.162;4.500;2024-02-04T08:06:01;102197.47;;;10.41;100.00
72685;BME280;61365;52.162;4.500;2024-02-04T08:08:28;102196.75;;;10.46;100.00
72685;BME280;61365;52.162;4.500;2024-02-04T08:10:54;102205.81;;;10.62;100.00
72685;BME280;61365;52.162;4.500;2024-02-04T08:13:20;102201.53;;;10.68;100.00
72685;BME280;61365;52.162;4.500;2024-02-04T08:15:47;102204.84;;;10.59;100.00
72685;BME280;61365;52.162;4.500;2024-02-04T08:18:13;102209.13;;;10.54;100.00
72685;BME280;61365;52.162;4.500;2024-02-04T08:20:39;102201.28;;;10.55;100.00
72685;BME280;61365;52.162;4.500;2024-02-04T08:23:05;102211.22;;;10.70;100.00
72685;BME280;61365;52.162;4.500;2024-02-04T08:25:31;102194.72;;;10.77;100.00
72685;BME280;61365;52.162;4.500;2024-02-04T08:27:58;102189.25;;;10.66;100.00
72685;BME280;61365;52.162;4.500;2024-02-04T08:30:24;102196.50;;;10.78;100.00
72685;BME280;61365;52.162;4.500;2024-02-04T08:32:50;102197.06;;;10.62;100.00
72685;BME280;61365;52.162;4.500;2024-02-04T08:35:16;102180.66;;;10.74;100.00
72685;BME280;61365;52.162;4.500;2024-02-04T08:37:42;102188.50;;;10.72;100.00
72685;BME280;61365;52.162;4.500;2024-02-04T08:40:08;102175.41;;;10.74;100.00
72685;BME280;61365;52.162;4.500;2024-02-04T08:42:36;102172.13;;;10.86;100.00
72685;BME280;61365;52.162;4.500;2024-02-04T08:45:02;102182.56;;;10.82;100.00
72685;BME280;61365;52.162;4.500;2024-02-04T08:47:28;102179.03;;;10.79;100.00
72685;BME280;61365;52.162;4.500;2024-02-04T08:49:54;102178.25;;;10.85;100.00
72685;BME280;61365;52.162;4.500;2024-02-04T08:52:20;102179.09;;;10.84;100.00
72685;BME280;61365;52.162;4.500;2024-02-04T08:54:47;102174.97;;;10.95;100.00
72685;BME280;61365;52.162;4.500;2024-02-04T08:57:13;102174.31;;;11.08;100.00
72685;BME280;61365;52.162;4.500;2024-02-04T08:59:40;102180.16;;;10.92;100.00
72685;BME280;61365;52.162;4.500;2024-02-04T09:02:07;102185.41;;;10.93;100.00
72685;BME280;61365;52.162;4.500;2024-02-04T09:04:33;102178.72;;;11.11;100.00
72685;BME280;61365;52.162;4.500;2024-02-04T09:07:08;102181.41;;;11.13;100.00
72685;BME280;61365;52.162;4.500;2024-02-04T09:09:35;102180.41;;;11.07;100.00
72685;BME280;61365;52.162;4.500;2024-02-04T09:12:01;102179.50;;;11.04;100.00
72685;BME280;61365;52.162;4.500;2024-02-04T09:14:27;102177.00;;;11.11;100.00
72685;BME280;61365;52.162;4.500;2024-02-04T09:16:54;102167.16;;;11.00;100.00
72685;BME280;61365;52.162;4.500;2024-02-04T09:19:20;102170.81;;;11.08;100.00
72685;BME280;61365;52.162;4.500;2024-02-04T09:21:46;102186.66;;;11.14;100.00
72685;BME280;61365;52.162;4.500;2024-02-04T09:24:12;102171.81;;;11.16;100.00
72685;BME280;61365;52.162;4.500;2024-02-04T09:26:38;102167.53;;;11.20;100.00
72685;BME280;61365;52.162;4.500;2024-02-04T09:29:04;102186.59;;;11.09;100.00
72685;BME280;61365;52.162;4.500;2024-02-04T09:31:31;102182.13;;;11.05;100.00
72685;BME280;61365;52.162;4.500;2024-02-04T09:33:57;102179.03;;;11.26;100.00
72685;BME280;61365;52.162;4.500;2024-02-04T09:36:23;102178.00;;;11.18;100.00
72685;BME280;61365;52.162;4.500;2024-02-04T09:38:50;102167.47;;;11.18;100.00
72685;BME280;61365;52.162;4.500;2024-02-04T09:41:16;102171.81;;;11.16;100.00
72685;BME280;61365;52.162;4.500;2024-02-04T09:43:42;102175.34;;;11.17;100.00
72685;BME280;61365;52.162;4.500;2024-02-04T09:46:09;102176.94;;;11.08;100.00
72685;BME280;61365;52.162;4.500;2024-02-04T09:48:35;102180.34;;;11.03;100.00
72685;BME280;61365;52.162;4.500;2024-02-04T09:51:03;102186.47;;;11.03;100.00
72685;BME280;61365;52.162;4.500;2024-02-04T09:53:32;102178.59;;;11.03;100.00
72685;BME280;61365;52.162;4.500;2024-02-04T09:56:03;102173.72;;;11.25;100.00
72685;BME280;61365;52.162;4.500;2024-02-04T09:58:34;102167.06;;;10.95;100.00
72685;BME280;61365;52.162;4.500;2024-02-04T10:01:01;102173.25;;;10.97;100.00
72685;BME280;61365;52.162;4.500;2024-02-04T10:03:28;102169.06;;;11.08;100.00
72685;BME280;61365;52.162;4.500;2024-02-04T10:05:54;102167.66;;;11.27;100.00
72685;BME280;61365;52.162;4.500;2024-02-04T10:08:21;102174.63;;;11.27;100.00
72685;BME280;61365;52.162;4.500;2024-02-04T10:10:47;102175.66;;;11.37;100.00
72685;BME280;61365;52.162;4.500;2024-02-04T10:13:13;102167.09;;;11.49;100.00
72685;BME280;61365;52.162;4.500;2024-02-04T10:15:39;102175.03;;;11.50;100.00
72685;BME280;61365;52.162;4.500;2024-02-04T10:18:07;102180.69;;;11.23;100.00
72685;BME280;61365;52.162;4.500;2024-02-04T10:20:33;102180.78;;;11.27;100.00
72685;BME280;61365;52.162;4.500;2024-02-04T10:23:00;102187.50;;;11.11;100.00
72685;BME280;61365;52.162;4.500;2024-02-04T10:25:26;102203.22;;;11.08;100.00
72685;BME280;61365;52.162;4.500;2024-02-04T10:27:53;102207.06;;;10.81;100.00
72685;BME280;61365;52.162;4.500;2024-02-04T10:30:19;102202.72;;;10.82;100.00
72685;BME280;61365;52.162;4.500;2024-02-04T10:32:47;102201.00;;;10.84;100.00
72685;BME280;61365;52.162;4.500;2024-02-04T10:35:16;102191.22;;;10.77;100.00
72685;BME280;61365;52.162;4.500;2024-02-04T10:37:45;102194.03;;;10.86;100.00
72685;BME280;61365;52.162;4.500;2024-02-04T10:40:11;102186.50;;;11.05;100.00
72685;BME280;61365;52.162;4.500;2024-02-04T10:42:37;102194.41;;;11.06;100.00
72685;BME280;61365;52.162;4.500;2024-02-04T10:45:07;102190.53;;;10.87;100.00
72685;BME280;61365;52.162;4.500;2024-02-04T10:47:38;102183.56;;;10.89;100.00
72685;BME280;61365;52.162;4.500;2024-02-04T10:50:06;102188.41;;;11.14;100.00
72685;BME280;61365;52.162;4.500;2024-02-04T10:52:37;102188.19;;;11.01;100.00
72685;BME280;61365;52.162;4.500;2024-02-04T10:55:08;102183.09;;;11.09;100.00
72685;BME280;61365;52.162;4.500;2024-02-04T10:57:37;102178.09;;;11.24;100.00
72685;BME280;61365;52.162;4.500;2024-02-04T11:00:04;102180.53;;;11.14;100.00
72685;BME280;61365;52.162;4.500;2024-02-04T11:02:34;102179.94;;;11.29;100.00
72685;BME280;61365;52.162;4.500;2024-02-04T11:05:03;102178.28;;;11.35;100.00
72685;BME280;61365;52.162;4.500;2024-02-04T11:07:33;102170.81;;;11.62;100.00
72685;BME280;61365;52.162;4.500;2024-02-04T11:10:00;102170.28;;;11.81;100.00
72685;BME280;61365;52.162;4.500;2024-02-04T11:12:28;102178.72;;;11.62;100.00
72685;BME280;61365;52.162;4.500;2024-02-04T11:14:58;102176.00;;;11.57;100.00
72685;BME280;61365;52.162;4.500;2024-02-04T11:28:21;102148.16;;;11.68;100.00
72685;BME280;61365;52.162;4.500;2024-02-04T11:30:51;102152.78;;;11.85;100.00
72685;BME280;61365;52.162;4.500;2024-02-04T11:33:18;102139.47;;;11.76;100.00
72685;BME280;61365;52.162;4.500;2024-02-04T11:35:45;102138.34;;;12.15;100.00
72685;BME280;61365;52.162;4.500;2024-02-04T11:38:11;102139.47;;;11.74;100.00
72685;BME280;61365;52.162;4.500;2024-02-04T11:40:39;102125.78;;;11.97;100.00
72685;BME280;61365;52.162;4.500;2024-02-04T11:43:07;102126.47;;;11.85;100.00
72685;BME280;61365;52.162;4.500;2024-02-04T11:45:37;102125.75;;;11.95;100.00
72685;BME280;61365;52.162;4.500;2024-02-04T11:48:07;102124.84;;;11.93;100.00
72685;BME280;61365;52.162;4.500;2024-02-04T11:50:35;102125.00;;;12.01;100.00
72685;BME280;61365;52.162;4.500;2024-02-04T11:53:04;102123.94;;;11.93;100.00
72685;BME280;61365;52.162;4.500;2024-02-04T11:55:31;102134.13;;;11.68;100.00
72685;BME280;61365;52.162;4.500;2024-02-04T11:57:57;102123.34;;;12.09;100.00
72685;BME280;61365;52.162;4.500;2024-02-04T12:00:25;102118.59;;;11.85;100.00
72685;BME280;61365;52.162;4.500;2024-02-04T12:03:05;102113.75;;;12.14;100.00
72685;BME280;61365;52.162;4.500;2024-02-04T12:05:33;102106.31;;;11.85;100.00
72685;BME280;61365;52.162;4.500;2024-02-04T12:08:04;102114.28;;;11.90;100.00
72685;BME280;61365;52.162;4.500;2024-02-04T12:10:32;102101.53;;;12.20;100.00
72685;BME280;61365;52.162;4.500;2024-02-04T12:13:00;102098.56;;;11.95;100.00
72685;BME280;61365;52.162;4.500;2024-02-04T12:15:29;102098.56;;;11.95;100.00
72685;BME280;61365;52.162;4.500;2024-02-04T12:18:08;102094.50;;;12.19;100.00
72685;BME280;61365;52.162;4.500;2024-02-04T12:20:35;102099.03;;;12.30;100.00
72685;BME280;61365;52.162;4.500;2024-02-04T12:23:06;102083.66;;;12.68;100.00
72685;BME280;61365;52.162;4.500;2024-02-04T12:25:33;102097.56;;;12.54;100.00
72685;BME280;61365;52.162;4.500;2024-02-04T12:28:01;102099.16;;;12.41;100.00
72685;BME280;61365;52.162;4.500;2024-02-04T12:30:30;102096.72;;;12.58;100.00
72685;BME280;61365;52.162;4.500;2024-02-04T12:32:57;102085.41;;;12.67;100.00
72685;BME280;61365;52.162;4.500;2024-02-04T12:35:27;102097.63;;;12.62;100.00
72685;BME280;61365;52.162;4.500;2024-02-04T12:37:54;102095.94;;;12.67;100.00
72685;BME280;61365;52.162;4.500;2024-02-04T12:40:22;102089.84;;;12.71;100.00
72685;BME280;61365;52.162;4.500;2024-02-04T12:43:06;102094.88;;;12.50;100.00
72685;BME280;61365;52.162;4.500;2024-02-04T12:45:36;102086.00;;;12.40;100.00
72685;BME280;61365;52.162;4.500;2024-02-04T12:48:03;102083.28;;;12.34;100.00
72685;BME280;61365;52.162;4.500;2024-02-04T12:50:29;102087.50;;;12.19;100.00
72685;BME280;61365;52.162;4.500;2024-02-04T12:53:03;102083.28;;;12.34;100.00